sensor_id;sensor_type;location;lat;lon;timestamp;P1;durP1;ratioP1;P2;durP2;ratioP2
4810;SDS011;2419;51.276;6.472;2023-06-14T00:02:21;7.00;;;4.40;;
4810;SDS011;2419;51.276;6.472;2023-06-14T00:04:49;6.33;;;3.90;;
4810;SDS011;2419;51.276;6.472;2023-06-14T00:07:20;7.20;;;4.40;;
4810;SDS011;2419;51.276;6.472;2023-06-14T00:10:00;6.90;;;3.83;;
4810;SDS011;2419;51.276;6.472;2023-06-14T00:12:29;13.00;;;4.57;;
4810;SDS011;2419;51.276;6.472;2023-06-14T00:14:57;7.33;;;4.13;;
4810;SDS011;2419;51.276;6.472;2023-06-14T00:17:26;6.40;;;3.70;;
4810;SDS011;2419;51.276;6.472;2023-06-14T00:19:56;6.73;;;4.03;;
4810;SDS011;2419;51.276;6.472;2023-06-14T00:22:24;7.23;;;4.40;;
4810;SDS011;2419;51.276;6.472;2023-06-14T00:24:55;11.73;;;5.63;;
4810;SDS011;2419;51.276;6.472;2023-06-14T00:27:23;7.07;;;4.90;;
4810;SDS011;2419;51.276;6.472;2023-06-14T00:29:51;7.53;;;4.90;;
4810;SDS011;2419;51.276;6.472;2023-06-14T00:32:19;6.00;;;4.40;;
4810;SDS011;2419;51.276;6.472;2023-06-14T00:34:56;6.90;;;4.30;;
4810;SDS011;2419;51.276;6.472;2023-06-14T00:37:24;7.47;;;4.40;;
4810;SDS011;2419;51.276;6.472;2023-06-14T00:39:52;6.83;;;4.83;;
4810;SDS011;2419;51.276;6.472;2023-06-14T00:42:23;6.73;;;4.53;;
4810;SDS011;2419;51.276;6.472;2023-06-14T00:44:52;6.70;;;4.67;;
4810;SDS011;2419;51.276;6.472;2023-06-14T00:47:21;7.17;;;4.37;;
4810;SDS011;2419;51.276;6.472;2023-06-14T00:49:50;7.60;;;4.87;;
4810;SDS011;2419;51.276;6.472;2023-06-14T00:52:22;7.00;;;4.50;;
4810;SDS011;2419;51.276;6.472;2023-06-14T00:54:51;5.83;;;4.37;;
4810;SDS011;2419;51.276;6.472;2023-06-14T00:57:19;11.67;;;5.17;;
4810;SDS011;2419;51.276;6.472;2023-06-14T00:59:52;5.50;;;4.50;;
4810;SDS011;2419;51.276;6.472;2023-06-14T01:02:21;7.33;;;4.73;;
4810;SDS011;2419;51.276;6.472;2023-06-14T01:04:50;5.17;;;4.57;;
4810;SDS011;2419;51.276;6.472;2023-06-14T01:07:23;5.90;;;4.63;;
4810;SDS011;2419;51.276;6.472;2023-06-14T01:10:09;6.83;;;4.50;;
4810;SDS011;2419;51.276;6.472;2023-06-14T01:12:44;6.73;;;4.37;;
4810;SDS011;2419;51.276;6.472;2023-06-14T01:15:20;7.20;;;4.60;;
4810;SDS011;2419;51.276;6.472;2023-06-14T01:17:48;9.20;;;4.63;;
4810;SDS011;2419;51.276;6.472;2023-06-14T01:20:18;8.13;;;4.43;;
4810;SDS011;2419;51.276;6.472;2023-06-14T01:22:51;6.63;;;4.50;;
4810;SDS011;2419;51.276;6.472;2023-06-14T01:25:20;5.47;;;4.40;;
4810;SDS011;2419;51.276;6.472;2023-06-14T01:27:49;7.43;;;4.40;;
4810;SDS011;2419;51.276;6.472;2023-06-14T01:30:21;7.00;;;4.37;;
4810;SDS011;2419;51.276;6.472;2023-06-14T01:32:51;7.00;;;4.20;;
4810;SDS011;2419;51.276;6.472;2023-06-14T01:35:21;6.73;;;4.50;;
4810;SDS011;2419;51.276;6.472;2023-06-14T01:37:51;8.60;;;4.47;;
4810;SDS011;2419;51.276;6.472;2023-06-14T01:40:21;8.60;;;4.57;;
4810;SDS011;2419;51.276;6.472;2023-06-14T01:42:50;7.07;;;4.30;;
4810;SDS011;2419;51.276;6.472;2023-06-14T01:45:19;8.00;;;5.00;;
4810;SDS011;2419;51.276;6.472;2023-06-14T01:47:48;7.30;;;5.10;;
4810;SDS011;2419;51.276;6.472;2023-06-14T01:50:18;7.13;;;4.60;;
4810;SDS011;2419;51.276;6.472;2023-06-14T01:52:47;8.77;;;4.30;;
4810;SDS011;2419;51.276;6.472;2023-06-14T01:55:16;7.50;;;4.27;;
4810;SDS011;2419;51.276;6.472;2023-06-14T01:57:45;5.23;;;4.10;;
4810;SDS011;2419;51.276;6.472;2023-06-14T02:00:13;6.47;;;4.37;;
4810;SDS011;2419;51.276;6.472;2023-06-14T02:02:42;11.17;;;4.47;;
4810;SDS011;2419;51.276;6.472;2023-06-14T02:05:11;8.40;;;4.70;;
4810;SDS011;2419;51.276;6.472;2023-06-14T02:07:40;7.97;;;5.07;;
4810;SDS011;2419;51.276;6.472;2023-06-14T02:10:08;5.90;;;4.17;;
4810;SDS011;2419;51.276;6.472;2023-06-14T02:12:38;8.73;;;4.73;;
4810;SDS011;2419;51.276;6.472;2023-06-14T02:15:06;8.20;;;4.47;;
4810;SDS011;2419;51.276;6.472;2023-06-14T02:17:35;8.00;;;4.40;;
4810;SDS011;2419;51.276;6.472;2023-06-14T02:20:06;6.70;;;3.90;;
4810;SDS011;2419;51.276;6.472;2023-06-14T02:22:35;10.13;;;5.00;;
4810;SDS011;2419;51.276;6.472;2023-06-14T02:25:06;9.30;;;4.97;;
4810;SDS011;2419;51.276;6.472;2023-06-14T02:27:35;4.13;;;3.73;;
4810;SDS011;2419;51.276;6.472;2023-06-14T02:30:05;7.90;;;4.03;;
4810;SDS011;2419;51.276;6.472;2023-06-14T02:32:34;7.90;;;3.90;;
4810;SDS011;2419;51.276;6.472;2023-06-14T02:35:04;14.23;;;5.07;;
4810;SDS011;2419;51.276;6.472;2023-06-14T02:37:34;8.37;;;5.07;;
4810;SDS011;2419;51.276;6.472;2023-06-14T02:40:02;5.60;;;4.07;;
4810;SDS011;2419;51.276;6.472;2023-06-14T02:42:32;9.20;;;4.70;;
4810;SDS011;2419;51.276;6.472;2023-06-14T02:45:00;10.13;;;4.53;;
4810;SDS011;2419;51.276;6.472;2023-06-14T02:47:31;9.93;;;5.17;;
4810;SDS011;2419;51.276;6.472;2023-06-14T02:49:59;10.63;;;5.10;;
4810;SDS011;2419;51.276;6.472;2023-06-14T02:52:28;9.73;;;4.37;;
4810;SDS011;2419;51.276;6.472;2023-06-14T02:54:56;13.03;;;4.70;;
4810;SDS011;2419;51.276;6.472;2023-06-14T02:57:25;8.20;;;4.43;;
4810;SDS011;2419;51.276;6.472;2023-06-14T02:59:53;7.43;;;4.20;;
4810;SDS011;2419;51.276;6.472;2023-06-14T03:02:21;9.93;;;4.00;;
4810;SDS011;2419;51.276;6.472;2023-06-14T03:04:50;8.43;;;3.83;;
4810;SDS011;2419;51.276;6.472;2023-06-14T03:07:19;7.57;;;4.23;;
4810;SDS011;2419;51.276;6.472;2023-06-14T03:09:52;11.43;;;4.53;;
4810;SDS011;2419;51.276;6.472;2023-06-14T03:12:20;14.43;;;5.37;;
4810;SDS011;2419;51.276;6.472;2023-06-14T03:14:50;6.20;;;3.97;;
4810;SDS011;2419;51.276;6.472;2023-06-14T03:17:21;12.27;;;4.53;;
4810;SDS011;2419;51.276;6.472;2023-06-14T03:19:52;8.63;;;4.20;;
4810;SDS011;2419;51.276;6.472;2023-06-14T03:22:20;7.13;;;3.97;;
4810;SDS011;2419;51.276;6.472;2023-06-14T03:24:48;6.20;;;4.70;;
4810;SDS011;2419;51.276;6.472;2023-06-14T03:27:16;7.60;;;4.97;;
4810;SDS011;2419;51.276;6.472;2023-06-14T03:29:45;6.87;;;4.20;;
4810;SDS011;2419;51.276;6.472;2023-06-14T03:32:13;12.40;;;3.93;;
4810;SDS011;2419;51.276;6.472;2023-06-14T03:34:43;7.83;;;4.80;;
4810;SDS011;2419;51.276;6.472;2023-06-14T03:37:18;8.30;;;4.93;;
4810;SDS011;2419;51.276;6.472;2023-06-14T03:39:47;6.10;;;4.07;;
4810;SDS011;2419;51.276;6.472;2023-06-14T03:42:19;11.33;;;4.67;;
4810;SDS011;2419;51.276;6.472;2023-06-14T03:44:48;6.03;;;4.13;;
4810;SDS011;2419;51.276;6.472;2023-06-14T03:47:18;7.40;;;4.50;;
4810;SDS011;2419;51.276;6.472;2023-06-14T03:49:46;12.03;;;4.87;;
4810;SDS011;2419;51.276;6.472;2023-06-14T03:52:14;12.33;;;4.87;;
4810;SDS011;2419;51.276;6.472;2023-06-14T03:54:46;10.40;;;3.60;;
4810;SDS011;2419;51.276;6.472;2023-06-14T03:57:18;6.63;;;4.00;;
4810;SDS011;2419;51.276;6.472;2023-06-14T03:59:49;6.80;;;3.73;;
4810;SDS011;2419;51.276;6.472;2023-06-14T04:02:17;8.80;;;4.97;;
4810;SDS011;2419;51.276;6.472;2023-06-14T04:04:46;11.60;;;3.77;;
4810;SDS011;2419;51.276;6.472;2023-06-14T04:07:15;5.77;;;4.17;;
4810;SDS011;2419;51.276;6.472;2023-06-14T04:09:47;7.60;;;3.83;;
4810;SDS011;2419;51.276;6.472;2023-06-14T04:12:15;7.43;;;3.70;;
4810;SDS011;2419;51.276;6.472;2023-06-14T04:14:43;4.57;;;3.20;;
4810;SDS011;2419;51.276;6.472;2023-06-14T04:17:11;5.40;;;3.77;;
4810;SDS011;2419;51.276;6.472;2023-06-14T04:19:43;6.87;;;3.47;;
4810;SDS011;2419;51.276;6.472;2023-06-14T04:22:11;7.53;;;3.90;;
4810;SDS011;2419;51.276;6.472;2023-06-14T04:24:39;7.70;;;3.53;;
4810;SDS011;2419;51.276;6.472;2023-06-14T04:27:11;7.63;;;4.20;;
4810;SDS011;2419;51.276;6.472;2023-06-14T04:29:40;6.97;;;3.77;;
4810;SDS011;2419;51.276;6.472;2023-06-14T04:32:11;8.50;;;4.03;;
4810;SDS011;2419;51.276;6.472;2023-06-14T04:34:40;3.80;;;3.30;;
4810;SDS011;2419;51.276;6.472;2023-06-14T04:37:09;8.00;;;3.60;;
4810;SDS011;2419;51.276;6.472;2023-06-14T04:39:40;9.20;;;3.63;;
4810;SDS011;2419;51.276;6.472;2023-06-14T04:42:08;7.40;;;3.10;;
4810;SDS011;2419;51.276;6.472;2023-06-14T04:44:39;4.90;;;3.63;;
4810;SDS011;2419;51.276;6.472;2023-06-14T04:47:07;8.00;;;3.70;;
4810;SDS011;2419;51.276;6.472;2023-06-14T04:49:36;8.83;;;3.83;;
4810;SDS011;2419;51.276;6.472;2023-06-14T04:52:05;6.13;;;3.70;;
4810;SDS011;2419;51.276;6.472;2023-06-14T04:54:36;10.00;;;3.67;;
4810;SDS011;2419;51.276;6.472;2023-06-14T04:57:07;5.90;;;3.40;;
4810;SDS011;2419;51.276;6.472;2023-06-14T04:59:43;5.70;;;3.57;;
4810;SDS011;2419;51.276;6.472;2023-06-14T05:02:11;7.33;;;3.50;;
4810;SDS011;2419;51.276;6.472;2023-06-14T05:04:39;7.10;;;3.50;;
4810;SDS011;2419;51.276;6.472;2023-06-14T05:07:08;6.90;;;3.57;;
4810;SDS011;2419;51.276;6.472;2023-06-14T05:09:37;5.70;;;3.90;;
4810;SDS011;2419;51.276;6.472;2023-06-14T05:12:05;22.93;;;4.43;;
4810;SDS011;2419;51.276;6.472;2023-06-14T05:14:36;10.00;;;4.17;;
4810;SDS011;2419;51.276;6.472;2023-06-14T05:17:06;9.90;;;3.63;;
4810;SDS011;2419;51.276;6.472;2023-06-14T05:19:35;7.50;;;2.93;;
4810;SDS011;2419;51.276;6.472;2023-06-14T05:22:03;9.50;;;3.43;;
4810;SDS011;2419;51.276;6.472;2023-06-14T05:24:31;3.43;;;2.90;;
4810;SDS011;2419;51.276;6.472;2023-06-14T05:27:00;9.33;;;3.13;;
4810;SDS011;2419;51.276;6.472;2023-06-14T05:29:28;5.90;;;3.90;;
4810;SDS011;2419;51.276;6.472;2023-06-14T05:31:56;4.97;;;3.60;;
4810;SDS011;2419;51.276;6.472;2023-06-14T05:34:26;4.37;;;2.80;;
4810;SDS011;2419;51.276;6.472;2023-06-14T05:36:54;6.70;;;2.63;;
4810;SDS011;2419;51.276;6.472;2023-06-14T05:39:23;7.80;;;3.57;;
4810;SDS011;2419;51.276;6.472;2023-06-14T05:41:51;4.40;;;3.07;;
4810;SDS011;2419;51.276;6.472;2023-06-14T05:44:19;8.20;;;3.70;;
4810;SDS011;2419;51.276;6.472;2023-06-14T05:46:47;5.17;;;2.80;;
4810;SDS011;2419;51.276;6.472;2023-06-14T05:49:15;3.13;;;2.67;;
4810;SDS011;2419;51.276;6.472;2023-06-14T05:51:45;5.00;;;3.10;;
4810;SDS011;2419;51.276;6.472;2023-06-14T05:54:14;5.10;;;2.80;;
4810;SDS011;2419;51.276;6.472;2023-06-14T05:56:42;4.83;;;3.07;;
4810;SDS011;2419;51.276;6.472;2023-06-14T05:59:10;6.30;;;2.87;;
4810;SDS011;2419;51.276;6.472;2023-06-14T06:01:38;8.33;;;2.67;;
4810;SDS011;2419;51.276;6.472;2023-06-14T06:04:06;5.47;;;2.70;;
4810;SDS011;2419;51.276;6.472;2023-06-14T06:06:35;3.77;;;3.17;;
4810;SDS011;2419;51.276;6.472;2023-06-14T06:09:04;4.00;;;3.20;;
4810;SDS011;2419;51.276;6.472;2023-06-14T06:11:33;3.10;;;2.70;;
4810;SDS011;2419;51.276;6.472;2023-06-14T06:14:17;3.67;;;2.50;;
4810;SDS011;2419;51.276;6.472;2023-06-14T06:16:45;4.10;;;3.03;;
4810;SDS011;2419;51.276;6.472;2023-06-14T06:19:14;8.00;;;3.20;;
4810;SDS011;2419;51.276;6.472;2023-06-14T06:21:42;5.47;;;3.00;;
4810;SDS011;2419;51.276;6.472;2023-06-14T06:24:11;3.40;;;2.97;;
4810;SDS011;2419;51.276;6.472;2023-06-14T06:26:39;7.50;;;3.53;;
4810;SDS011;2419;51.276;6.472;2023-06-14T06:29:07;4.70;;;3.07;;
4810;SDS011;2419;51.276;6.472;2023-06-14T06:31:35;5.80;;;3.37;;
4810;SDS011;2419;51.276;6.472;2023-06-14T06:34:03;9.17;;;2.93;;
4810;SDS011;2419;51.276;6.472;2023-06-14T06:36:31;8.27;;;3.00;;
4810;SDS011;2419;51.276;6.472;2023-06-14T06:39:00;7.03;;;3.10;;
4810;SDS011;2419;51.276;6.472;2023-06-14T06:41:29;4.17;;;2.70;;
4810;SDS011;2419;51.276;6.472;2023-06-14T06:43:57;3.90;;;2.60;;
4810;SDS011;2419;51.276;6.472;2023-06-14T06:46:28;2.93;;;2.53;;
4810;SDS011;2419;51.276;6.472;2023-06-14T06:48:56;7.00;;;2.97;;
4810;SDS011;2419;51.276;6.472;2023-06-14T06:51:24;3.03;;;2.73;;
4810;SDS011;2419;51.276;6.472;2023-06-14T06:53:52;6.33;;;2.33;;
4810;SDS011;2419;51.276;6.472;2023-06-14T06:56:21;6.50;;;2.90;;
4810;SDS011;2419;51.276;6.472;2023-06-14T06:58:51;6.70;;;2.80;;
4810;SDS011;2419;51.276;6.472;2023-06-14T07:01:19;6.17;;;2.97;;
4810;SDS011;2419;51.276;6.472;2023-06-14T07:03:47;3.30;;;2.80;;
4810;SDS011;2419;51.276;6.472;2023-06-14T07:06:15;4.50;;;2.70;;
4810;SDS011;2419;51.276;6.472;2023-06-14T07:08:45;3.27;;;2.70;;
4810;SDS011;2419;51.276;6.472;2023-06-14T07:11:14;4.30;;;2.57;;
4810;SDS011;2419;51.276;6.472;2023-06-14T07:13:42;4.10;;;2.53;;
4810;SDS011;2419;51.276;6.472;2023-06-14T07:16:13;7.73;;;2.30;;
4810;SDS011;2419;51.276;6.472;2023-06-14T07:18:41;3.40;;;2.30;;
4810;SDS011;2419;51.276;6.472;2023-06-14T07:21:10;2.93;;;2.30;;
4810;SDS011;2419;51.276;6.472;2023-06-14T07:23:38;5.30;;;2.73;;
4810;SDS011;2419;51.276;6.472;2023-06-14T07:26:06;7.40;;;2.23;;
4810;SDS011;2419;51.276;6.472;2023-06-14T07:28:34;2.70;;;1.97;;
4810;SDS011;2419;51.276;6.472;2023-06-14T07:31:02;2.90;;;2.10;;
4810;SDS011;2419;51.276;6.472;2023-06-14T07:33:31;5.73;;;2.50;;
4810;SDS011;2419;51.276;6.472;2023-06-14T07:36:00;4.90;;;2.10;;
4810;SDS011;2419;51.276;6.472;2023-06-14T07:38:28;2.17;;;1.80;;
4810;SDS011;2419;51.276;6.472;2023-06-14T07:40:56;3.87;;;2.10;;
4810;SDS011;2419;51.276;6.472;2023-06-14T07:43:24;2.17;;;1.70;;
4810;SDS011;2419;51.276;6.472;2023-06-14T07:45:52;2.80;;;1.80;;
4810;SDS011;2419;51.276;6.472;2023-06-14T07:48:33;4.40;;;1.47;;
4810;SDS011;2419;51.276;6.472;2023-06-14T07:51:02;2.80;;;1.93;;
4810;SDS011;2419;51.276;6.472;2023-06-14T07:53:32;2.40;;;1.70;;
4810;SDS011;2419;51.276;6.472;2023-06-14T07:56:00;3.50;;;1.80;;
4810;SDS011;2419;51.276;6.472;2023-06-14T07:58:29;5.57;;;1.90;;
4810;SDS011;2419;51.276;6.472;2023-06-14T08:00:57;4.53;;;2.10;;
4810;SDS011;2419;51.276;6.472;2023-06-14T08:03:25;2.80;;;2.00;;
4810;SDS011;2419;51.276;6.472;2023-06-14T08:05:55;4.30;;;1.83;;
4810;SDS011;2419;51.276;6.472;2023-06-14T08:08:23;3.90;;;2.20;;
4810;SDS011;2419;51.276;6.472;2023-06-14T08:10:51;2.90;;;1.80;;
4810;SDS011;2419;51.276;6.472;2023-06-14T08:13:19;2.53;;;1.73;;
4810;SDS011;2419;51.276;6.472;2023-06-14T08:15:47;1.83;;;1.60;;
4810;SDS011;2419;51.276;6.472;2023-06-14T08:18:16;1.20;;;1.10;;
4810;SDS011;2419;51.276;6.472;2023-06-14T08:20:44;2.10;;;1.73;;
4810;SDS011;2419;51.276;6.472;2023-06-14T08:23:13;1.50;;;1.40;;
4810;SDS011;2419;51.276;6.472;2023-06-14T08:25:42;1.77;;;1.30;;
4810;SDS011;2419;51.276;6.472;2023-06-14T08:28:10;2.00;;;1.70;;
4810;SDS011;2419;51.276;6.472;2023-06-14T08:30:38;2.73;;;1.53;;
4810;SDS011;2419;51.276;6.472;2023-06-14T08:33:06;1.53;;;1.43;;
4810;SDS011;2419;51.276;6.472;2023-06-14T08:35:42;4.30;;;1.57;;
4810;SDS011;2419;51.276;6.472;2023-06-14T08:38:11;3.53;;;1.57;;
4810;SDS011;2419;51.276;6.472;2023-06-14T08:40:41;1.93;;;1.43;;
4810;SDS011;2419;51.276;6.472;2023-06-14T08:43:09;12.17;;;3.10;;
4810;SDS011;2419;51.276;6.472;2023-06-14T08:45:37;2.07;;;1.47;;
4810;SDS011;2419;51.276;6.472;2023-06-14T08:48:06;6.57;;;1.50;;
4810;SDS011;2419;51.276;6.472;2023-06-14T08:50:36;2.80;;;1.33;;
4810;SDS011;2419;51.276;6.472;2023-06-14T08:53:08;2.10;;;1.87;;
4810;SDS011;2419;51.276;6.472;2023-06-14T08:55:41;1.80;;;1.70;;
4810;SDS011;2419;51.276;6.472;2023-06-14T08:58:09;2.23;;;1.87;;
4810;SDS011;2419;51.276;6.472;2023-06-14T09:00:40;4.13;;;1.70;;
4810;SDS011;2419;51.276;6.472;2023-06-14T09:03:11;2.33;;;1.57;;
4810;SDS011;2419;51.276;6.472;2023-06-14T09:05:41;2.73;;;1.90;;
4810;SDS011;2419;51.276;6.472;2023-06-14T09:08:10;2.60;;;1.50;;
4810;SDS011;2419;51.276;6.472;2023-06-14T09:10:38;3.57;;;1.70;;
4810;SDS011;2419;51.276;6.472;2023-06-14T09:13:08;9.70;;;1.93;;
4810;SDS011;2419;51.276;6.472;2023-06-14T09:15:36;3.40;;;1.57;;
4810;SDS011;2419;51.276;6.472;2023-06-14T09:18:04;3.53;;;2.43;;
4810;SDS011;2419;51.276;6.472;2023-06-14T09:20:33;4.03;;;1.90;;
4810;SDS011;2419;51.276;6.472;2023-06-14T09:23:02;1.90;;;1.63;;
4810;SDS011;2419;51.276;6.472;2023-06-14T09:25:32;6.13;;;2.00;;
4810;SDS011;2419;51.276;6.472;2023-06-14T09:28:10;2.07;;;1.47;;
4810;SDS011;2419;51.276;6.472;2023-06-14T09:30:38;2.30;;;1.80;;
4810;SDS011;2419;51.276;6.472;2023-06-14T09:33:07;5.80;;;2.27;;
4810;SDS011;2419;51.276;6.472;2023-06-14T09:35:35;2.17;;;1.50;;
4810;SDS011;2419;51.276;6.472;2023-06-14T09:38:03;3.03;;;1.50;;
4810;SDS011;2419;51.276;6.472;2023-06-14T09:40:34;1.33;;;1.23;;
4810;SDS011;2419;51.276;6.472;2023-06-14T09:43:06;3.17;;;1.63;;
4810;SDS011;2419;51.276;6.472;2023-06-14T09:45:38;2.10;;;1.40;;
4810;SDS011;2419;51.276;6.472;2023-06-14T09:48:07;1.97;;;1.50;;
4810;SDS011;2419;51.276;6.472;2023-06-14T09:50:36;2.80;;;1.60;;
4810;SDS011;2419;51.276;6.472;2023-06-14T09:53:05;2.90;;;1.80;;
4810;SDS011;2419;51.276;6.472;2023-06-14T09:55:35;3.50;;;1.60;;
4810;SDS011;2419;51.276;6.472;2023-06-14T09:58:05;2.00;;;1.73;;
4810;SDS011;2419;51.276;6.472;2023-06-14T10:00:35;4.53;;;2.00;;
4810;SDS011;2419;51.276;6.472;2023-06-14T10:03:09;7.17;;;1.87;;
4810;SDS011;2419;51.276;6.472;2023-06-14T10:05:41;1.50;;;1.40;;
4810;SDS011;2419;51.276;6.472;2023-06-14T10:08:13;2.03;;;1.43;;
4810;SDS011;2419;51.276;6.472;2023-06-14T10:10:43;3.03;;;1.93;;
4810;SDS011;2419;51.276;6.472;2023-06-14T10:13:12;2.60;;;1.80;;
4810;SDS011;2419;51.276;6.472;2023-06-14T10:15:42;11.73;;;2.17;;
4810;SDS011;2419;51.276;6.472;2023-06-14T10:18:22;1.97;;;1.70;;
4810;SDS011;2419;51.276;6.472;2023-06-14T10:20:59;1.50;;;1.40;;
4810;SDS011;2419;51.276;6.472;2023-06-14T10:23:37;2.00;;;1.80;;
4810;SDS011;2419;51.276;6.472;2023-06-14T10:26:08;2.17;;;1.90;;
4810;SDS011;2419;51.276;6.472;2023-06-14T10:28:44;2.80;;;1.60;;
4810;SDS011;2419;51.276;6.472;2023-06-14T10:31:30;3.30;;;1.93;;
4810;SDS011;2419;51.276;6.472;2023-06-14T10:34:10;3.87;;;1.80;;
4810;SDS011;2419;51.276;6.472;2023-06-14T10:36:41;2.10;;;1.60;;
4810;SDS011;2419;51.276;6.472;2023-06-14T10:39:15;2.77;;;2.10;;
4810;SDS011;2419;51.276;6.472;2023-06-14T10:41:53;2.43;;;2.20;;
4810;SDS011;2419;51.276;6.472;2023-06-14T10:44:41;2.30;;;1.47;;
4810;SDS011;2419;51.276;6.472;2023-06-14T10:47:13;1.43;;;1.23;;
4810;SDS011;2419;51.276;6.472;2023-06-14T10:49:51;2.13;;;1.60;;
4810;SDS011;2419;51.276;6.472;2023-06-14T10:52:24;5.90;;;1.80;;
4810;SDS011;2419;51.276;6.472;2023-06-14T10:55:07;8.07;;;2.17;;
4810;SDS011;2419;51.276;6.472;2023-06-14T10:57:38;1.70;;;1.60;;
4810;SDS011;2419;51.276;6.472;2023-06-14T11:00:18;1.57;;;1.47;;
4810;SDS011;2419;51.276;6.472;2023-06-14T11:03:02;2.00;;;1.80;;
4810;SDS011;2419;51.276;6.472;2023-06-14T11:06:11;2.50;;;1.57;;
4810;SDS011;2419;51.276;6.472;2023-06-14T11:11:52;2.00;;;1.33;;
4810;SDS011;2419;51.276;6.472;2023-06-14T11:14:23;3.70;;;1.70;;
4810;SDS011;2419;51.276;6.472;2023-06-14T11:16:51;16.27;;;2.23;;
4810;SDS011;2419;51.276;6.472;2023-06-14T11:19:19;3.17;;;1.40;;
4810;SDS011;2419;51.276;6.472;2023-06-14T11:21:50;1.50;;;1.40;;
4810;SDS011;2419;51.276;6.472;2023-06-14T11:24:19;3.40;;;1.33;;
4810;SDS011;2419;51.276;6.472;2023-06-14T11:26:47;3.47;;;1.93;;
4810;SDS011;2419;51.276;6.472;2023-06-14T11:29:16;3.00;;;1.67;;
4810;SDS011;2419;51.276;6.472;2023-06-14T11:31:44;1.97;;;1.40;;
4810;SDS011;2419;51.276;6.472;2023-06-14T11:34:13;2.87;;;1.50;;
4810;SDS011;2419;51.276;6.472;2023-06-14T11:36:41;2.87;;;1.50;;
4810;SDS011;2419;51.276;6.472;2023-06-14T11:39:11;2.60;;;1.27;;
4810;SDS011;2419;51.276;6.472;2023-06-14T11:41:40;1.70;;;1.40;;
4810;SDS011;2419;51.276;6.472;2023-06-14T11:44:09;1.53;;;1.43;;
4810;SDS011;2419;51.276;6.472;2023-06-14T11:46:38;1.40;;;1.30;;
4810;SDS011;2419;51.276;6.472;2023-06-14T11:49:07;2.40;;;1.60;;
4810;SDS011;2419;51.276;6.472;2023-06-14T11:51:36;1.40;;;1.30;;
4810;SDS011;2419;51.276;6.472;2023-06-14T11:54:05;3.23;;;1.23;;
4810;SDS011;2419;51.276;6.472;2023-06-14T11:56:36;3.30;;;1.30;;
4810;SDS011;2419;51.276;6.472;2023-06-14T11:59:04;1.37;;;1.27;;
4810;SDS011;2419;51.276;6.472;2023-06-14T12:01:35;2.07;;;1.53;;
4810;SDS011;2419;51.276;6.472;2023-06-14T12:04:06;1.50;;;1.40;;
4810;SDS011;2419;51.276;6.472;2023-06-14T12:06:34;1.27;;;1.17;;
4810;SDS011;2419;51.276;6.472;2023-06-14T12:09:06;5.57;;;1.70;;
4810;SDS011;2419;51.276;6.472;2023-06-14T12:11:40;1.30;;;1.20;;
4810;SDS011;2419;51.276;6.472;2023-06-14T12:14:09;1.50;;;1.40;;
4810;SDS011;2419;51.276;6.472;2023-06-14T12:16:39;2.13;;;1.20;;
4810;SDS011;2419;51.276;6.472;2023-06-14T12:19:08;1.70;;;1.60;;
4810;SDS011;2419;51.276;6.472;2023-06-14T12:21:39;1.20;;;1.10;;
4810;SDS011;2419;51.276;6.472;2023-06-14T12:24:08;1.60;;;1.30;;
4810;SDS011;2419;51.276;6.472;2023-06-14T12:26:39;2.40;;;1.60;;
4810;SDS011;2419;51.276;6.472;2023-06-14T12:29:08;2.13;;;1.40;;
4810;SDS011;2419;51.276;6.472;2023-06-14T12:31:39;2.87;;;1.70;;
4810;SDS011;2419;51.276;6.472;2023-06-14T12:34:07;2.10;;;1.50;;
4810;SDS011;2419;51.276;6.472;2023-06-14T12:36:36;2.30;;;1.53;;
4810;SDS011;2419;51.276;6.472;2023-06-14T12:39:08;2.40;;;1.60;;
4810;SDS011;2419;51.276;6.472;2023-06-14T12:41:36;2.23;;;1.57;;
4810;SDS011;2419;51.276;6.472;2023-06-14T12:44:05;1.47;;;1.33;;
4810;SDS011;2419;51.276;6.472;2023-06-14T12:46:33;1.45;;;1.30;;
4810;SDS011;2419;51.276;6.472;2023-06-14T12:49:03;1.70;;;1.50;;
4810;SDS011;2419;51.276;6.472;2023-06-14T12:51:31;1.40;;;1.30;;
4810;SDS011;2419;51.276;6.472;2023-06-14T12:53:59;3.40;;;1.50;;
4810;SDS011;2419;51.276;6.472;2023-06-14T12:56:27;3.80;;;1.70;;
4810;SDS011;2419;51.276;6.472;2023-06-14T12:58:55;2.50;;;1.80;;
4810;SDS011;2419;51.276;6.472;2023-06-14T13:01:25;1.40;;;1.30;;
4810;SDS011;2419;51.276;6.472;2023-06-14T13:03:53;1.57;;;1.47;;
4810;SDS011;2419;51.276;6.472;2023-06-14T13:06:21;1.87;;;1.50;;
4810;SDS011;2419;51.276;6.472;2023-06-14T13:08:50;1.40;;;1.30;;
4810;SDS011;2419;51.276;6.472;2023-06-14T13:11:21;5.47;;;1.40;;
4810;SDS011;2419;51.276;6.472;2023-06-14T13:13:49;1.43;;;1.23;;
4810;SDS011;2419;51.276;6.472;2023-06-14T13:16:17;2.77;;;1.57;;
4810;SDS011;2419;51.276;6.472;2023-06-14T13:18:46;3.70;;;1.60;;
4810;SDS011;2419;51.276;6.472;2023-06-14T13:21:15;1.57;;;1.43;;
4810;SDS011;2419;51.276;6.472;2023-06-14T13:23:43;1.40;;;1.10;;
4810;SDS011;2419;51.276;6.472;2023-06-14T13:26:11;1.50;;;1.40;;
4810;SDS011;2419;51.276;6.472;2023-06-14T13:28:39;4.30;;;1.60;;
4810;SDS011;2419;51.276;6.472;2023-06-14T13:31:07;1.93;;;1.47;;
4810;SDS011;2419;51.276;6.472;2023-06-14T13:33:35;2.40;;;1.30;;
4810;SDS011;2419;51.276;6.472;2023-06-14T13:36:05;1.83;;;1.23;;
4810;SDS011;2419;51.276;6.472;2023-06-14T13:38:33;5.23;;;2.93;;
4810;SDS011;2419;51.276;6.472;2023-06-14T13:41:01;2.27;;;1.50;;
4810;SDS011;2419;51.276;6.472;2023-06-14T13:43:29;7.00;;;1.30;;
4810;SDS011;2419;51.276;6.472;2023-06-14T13:45:57;1.67;;;1.50;;
4810;SDS011;2419;51.276;6.472;2023-06-14T13:48:25;1.47;;;1.27;;
4810;SDS011;2419;51.276;6.472;2023-06-14T13:50:53;3.50;;;1.60;;
4810;SDS011;2419;51.276;6.472;2023-06-14T13:53:23;4.97;;;1.60;;
4810;SDS011;2419;51.276;6.472;2023-06-14T13:55:51;1.90;;;1.50;;
4810;SDS011;2419;51.276;6.472;2023-06-14T13:58:20;1.60;;;1.50;;
4810;SDS011;2419;51.276;6.472;2023-06-14T14:00:49;2.27;;;1.43;;
4810;SDS011;2419;51.276;6.472;2023-06-14T14:03:18;1.47;;;1.30;;
4810;SDS011;2419;51.276;6.472;2023-06-14T14:05:46;2.10;;;1.27;;
4810;SDS011;2419;51.276;6.472;2023-06-14T14:08:14;1.97;;;1.80;;
4810;SDS011;2419;51.276;6.472;2023-06-14T14:10:43;8.27;;;1.50;;
4810;SDS011;2419;51.276;6.472;2023-06-14T14:13:11;2.00;;;1.40;;
4810;SDS011;2419;51.276;6.472;2023-06-14T14:15:39;2.30;;;1.73;;
4810;SDS011;2419;51.276;6.472;2023-06-14T14:18:08;2.80;;;1.50;;
4810;SDS011;2419;51.276;6.472;2023-06-14T14:20:36;2.40;;;1.60;;
4810;SDS011;2419;51.276;6.472;2023-06-14T14:23:04;2.27;;;1.70;;
4810;SDS011;2419;51.276;6.472;2023-06-14T14:25:32;1.50;;;1.40;;
4810;SDS011;2419;51.276;6.472;2023-06-14T14:28:02;1.73;;;1.60;;
4810;SDS011;2419;51.276;6.472;2023-06-14T14:30:30;1.80;;;1.70;;
4810;SDS011;2419;51.276;6.472;2023-06-14T14:32:59;1.60;;;1.50;;
4810;SDS011;2419;51.276;6.472;2023-06-14T14:35:27;2.00;;;1.80;;
4810;SDS011;2419;51.276;6.472;2023-06-14T14:37:57;1.70;;;1.53;;
4810;SDS011;2419;51.276;6.472;2023-06-14T14:40:25;1.93;;;1.47;;
4810;SDS011;2419;51.276;6.472;2023-06-14T14:42:53;2.63;;;1.60;;
4810;SDS011;2419;51.276;6.472;2023-06-14T14:45:22;1.70;;;1.50;;
4810;SDS011;2419;51.276;6.472;2023-06-14T14:47:50;1.80;;;1.70;;
4810;SDS011;2419;51.276;6.472;2023-06-14T14:50:21;3.00;;;1.50;;
4810;SDS011;2419;51.276;6.472;2023-06-14T14:52:49;1.60;;;1.50;;
4810;SDS011;2419;51.276;6.472;2023-06-14T14:55:17;5.13;;;1.70;;
4810;SDS011;2419;51.276;6.472;2023-06-14T14:57:45;4.57;;;1.50;;
4810;SDS011;2419;51.276;6.472;2023-06-14T15:00:14;1.67;;;1.57;;
4810;SDS011;2419;51.276;6.472;2023-06-14T15:02:45;1.73;;;1.60;;
4810;SDS011;2419;51.276;6.472;2023-06-14T15:05:13;2.43;;;1.57;;
4810;SDS011;2419;51.276;6.472;2023-06-14T15:07:42;1.93;;;1.50;;
4810;SDS011;2419;51.276;6.472;2023-06-14T15:10:11;1.60;;;1.50;;
4810;SDS011;2419;51.276;6.472;2023-06-14T15:12:39;1.80;;;1.70;;
4810;SDS011;2419;51.276;6.472;2023-06-14T15:15:08;2.33;;;1.67;;
4810;SDS011;2419;51.276;6.472;2023-06-14T15:17:36;3.30;;;1.80;;
4810;SDS011;2419;51.276;6.472;2023-06-14T15:20:06;2.97;;;1.90;;
4810;SDS011;2419;51.276;6.472;2023-06-14T15:22:35;2.67;;;1.80;;
4810;SDS011;2419;51.276;6.472;2023-06-14T15:25:03;2.03;;;1.80;;
4810;SDS011;2419;51.276;6.472;2023-06-14T15:27:32;2.50;;;1.67;;
4810;SDS011;2419;51.276;6.472;2023-06-14T15:30:00;1.63;;;1.53;;
4810;SDS011;2419;51.276;6.472;2023-06-14T15:32:29;3.03;;;2.07;;
4810;SDS011;2419;51.276;6.472;2023-06-14T15:34:57;1.93;;;1.77;;